Time;durP1;ratioP1;P1;durP2;ratioP2;P2;SDS_P1;SDS_P2;PMS_P1;PMS_P2;Temp;Humidity;BMP_temperature;BMP_pressure;BME280_temperature;BME280_humidity;BME280_pressure;Samples;Min_cycle;Max_cycle;Signal;HPM_P1;HPM_P2
2021/09/08 00:00:23;;;;;;;9.55;5.10;;;;;;;;;;5090139;28;20024;-45
2021/09/08 00:02:50;;;;;;;9.98;4.82;;;;;;;;;;5086368;28;20541;-44
2021/09/08 00:05:17;;;;;;;9.40;4.90;;;;;;;;;;5080667;28;20016;-44
2021/09/08 00:07:44;;;;;;;11.65;4.65;;;;;;;;;;5087448;28;20020;-43
2021/09/08 00:10:12;;;;;;;12.82;5.68;;;;;;;;;;5087292;28;20023;-44
2021/09/08 00:12:40;;;;;;;12.35;4.88;;;;;;;;;;5087062;28;20135;-43
2021/09/08 00:15:09;;;;;;;11.55;5.13;;;;;;;;;;5084675;28;20103;-42
2021/09/08 00:17:36;;;;;;;13.20;4.70;;;;;;;;;;5095050;28;20596;-49
2021/09/08 00:20:04;;;;;;;16.13;5.45;;;;;;;;;;5092868;28;20036;-43
2021/09/08 00:22:31;;;;;;;12.57;4.50;;;;;;;;;;5098620;28;20436;-40
2021/09/08 00:24:59;;;;;;;11.43;4.32;;;;;;;;;;5101229;28;20105;-41
2021/09/08 00:27:26;;;;;;;11.75;4.25;;;;;;;;;;5087055;28;20020;-41
2021/09/08 00:29:53;;;;;;;15.60;5.15;;;;;;;;;;5094876;28;20019;-47
2021/09/08 00:32:20;;;;;;;15.85;4.60;;;;;;;;;;5094935;28;20023;-43
2021/09/08 00:34:47;;;;;;;10.52;4.47;;;;;;;;;;5075899;28;20525;-46
2021/09/08 00:37:19;;;;;;;14.05;4.82;;;;;;;;;;5093509;28;20023;-44
2021/09/08 00:39:46;;;;;;;13.13;4.30;;;;;;;;;;5092748;28;20570;-42
2021/09/08 00:42:14;;;;;;;9.77;3.65;;;;;;;;;;5097910;28;20398;-45
2021/09/08 00:44:42;;;;;;;11.38;4.60;;;;;;;;;;5096841;28;20024;-43
2021/09/08 00:47:12;;;;;;;9.68;3.47;;;;;;;;;;5099563;28;20035;-43
2021/09/08 00:49:39;;;;;;;12.05;3.90;;;;;;;;;;5067343;28;20380;-44
2021/09/08 00:52:07;;;;;;;9.02;3.42;;;;;;;;;;5101389;28;20078;-44
2021/09/08 00:54:35;;;;;;;11.75;4.05;;;;;;;;;;5095765;28;20017;-42
2021/09/08 00:57:04;;;;;;;12.00;4.38;;;;;;;;;;5099997;28;20070;-42
2021/09/08 00:59:33;;;;;;;9.00;3.80;;;;;;;;;;5100137;28;20028;-42
2021/09/08 01:02:04;;;;;;;12.80;4.68;;;;;;;;;;5095755;28;20383;-42
2021/09/08 01:04:32;;;;;;;16.65;5.95;;;;;;;;;;5098486;28;20388;-45
2021/09/08 01:06:59;;;;;;;25.17;8.38;;;;;;;;;;5101624;28;20039;-41
2021/09/08 01:09:28;;;;;;;30.67;11.52;;;;;;;;;;5097999;28;20540;-42
2021/09/08 01:11:55;;;;;;;43.80;13.00;;;;;;;;;;5084988;28;20501;-44
2021/09/08 01:14:22;;;;;;;58.88;15.90;;;;;;;;;;5089470;28;20043;-44
2021/09/08 01:16:50;;;;;;;67.55;18.92;;;;;;;;;;5084207;28;20433;-42
2021/09/08 01:19:17;;;;;;;58.80;17.77;;;;;;;;;;5087446;28;20028;-43
2021/09/08 01:21:45;;;;;;;60.20;19.10;;;;;;;;;;5085280;28;20031;-45
2021/09/08 01:24:12;;;;;;;64.85;21.00;;;;;;;;;;5087576;28;20488;-43
2021/09/08 01:26:40;;;;;;;70.90;20.60;;;;;;;;;;5084368;28;20024;-42
2021/09/08 01:29:07;;;;;;;64.03;20.10;;;;;;;;;;5088705;28;20024;-49
2021/09/08 01:31:34;;;;;;;64.55;20.55;;;;;;;;;;5088320;28;20043;-42
2021/09/08 01:34:01;;;;;;;63.80;19.77;;;;;;;;;;5089423;28;20063;-43
2021/09/08 01:36:28;;;;;;;70.18;20.83;;;;;;;;;;5091042;28;20060;-42
2021/09/08 01:38:56;;;;;;;67.30;20.10;;;;;;;;;;5090136;28;20400;-43
2021/09/08 01:41:23;;;;;;;61.72;19.02;;;;;;;;;;5095091;28;20077;-41
2021/09/08 01:43:50;;;;;;;62.53;19.23;;;;;;;;;;5100557;28;20077;-43
2021/09/08 01:46:20;;;;;;;56.55;19.13;;;;;;;;;;5093444;28;20028;-45
2021/09/08 01:48:47;;;;;;;65.72;17.27;;;;;;;;;;5096844;28;20411;-45
2021/09/08 01:51:14;;;;;;;57.45;16.85;;;;;;;;;;5063562;28;20030;-49
2021/09/08 01:53:41;;;;;;;55.42;15.38;;;;;;;;;;5104384;28;20032;-43
2021/09/08 01:56:09;;;;;;;59.33;15.77;;;;;;;;;;5103356;28;20012;-42
2021/09/08 01:58:36;;;;;;;53.40;16.92;;;;;;;;;;5103271;28;20147;-42
2021/09/08 02:01:04;;;;;;;56.70;16.42;;;;;;;;;;5099493;28;20050;-42
2021/09/08 02:03:31;;;;;;;55.92;14.80;;;;;;;;;;5102887;28;20067;-43
2021/09/08 02:05:58;;;;;;;46.28;15.13;;;;;;;;;;5104832;28;20027;-44
2021/09/08 02:08:30;;;;;;;43.90;13.68;;;;;;;;;;5089600;28;20057;-43
2021/09/08 02:10:57;;;;;;;45.20;14.10;;;;;;;;;;5109048;28;20020;-44
2021/09/08 02:13:27;;;;;;;43.80;12.73;;;;;;;;;;5106464;28;20038;-44
2021/09/08 02:15:54;;;;;;;54.83;13.43;;;;;;;;;;5092151;28;20012;-44
2021/09/08 02:18:21;;;;;;;46.42;12.35;;;;;;;;;;5105014;28;20084;-43
2021/09/08 02:20:48;;;;;;;37.80;11.30;;;;;;;;;;5110723;28;20027;-43
2021/09/08 02:23:15;;;;;;;53.78;12.20;;;;;;;;;;5111304;28;20016;-42
2021/09/08 02:25:42;;;;;;;38.38;11.98;;;;;;;;;;5100397;28;20024;-45
2021/09/08 02:28:09;;;;;;;35.03;11.32;;;;;;;;;;5069004;28;20564;-45
2021/09/08 02:30:36;;;;;;;36.58;10.68;;;;;;;;;;5074321;28;20161;-44
2021/09/08 02:33:03;;;;;;;39.95;10.70;;;;;;;;;;5073530;28;20171;-45
2021/09/08 02:35:30;;;;;;;37.72;10.48;;;;;;;;;;5073348;28;20501;-44
2021/09/08 02:37:57;;;;;;;38.80;10.57;;;;;;;;;;5072942;28;20047;-47
2021/09/08 02:40:24;;;;;;;30.77;10.18;;;;;;;;;;5074227;28;20017;-43
2021/09/08 02:42:51;;;;;;;36.72;9.30;;;;;;;;;;5055904;28;20047;-44
2021/09/08 02:45:18;;;;;;;30.80;9.63;;;;;;;;;;5074275;28;20012;-45
2021/09/08 02:47:48;;;;;;;30.23;10.18;;;;;;;;;;5073233;28;20537;-43
2021/09/08 02:50:15;;;;;;;25.23;9.32;;;;;;;;;;5073137;28;20031;-47
2021/09/08 02:52:42;;;;;;;25.98;8.80;;;;;;;;;;5073013;28;20027;-46
2021/09/08 02:55:09;;;;;;;31.52;9.32;;;;;;;;;;5073078;28;20032;-43
2021/09/08 02:57:36;;;;;;;30.88;8.57;;;;;;;;;;5072924;28;20380;-43
2021/09/08 03:00:04;;;;;;;28.10;8.50;;;;;;;;;;5073002;28;20054;-46
2021/09/08 03:02:31;;;;;;;29.67;9.10;;;;;;;;;;5072696;28;20395;-43
2021/09/08 03:04:59;;;;;;;23.48;8.15;;;;;;;;;;5073026;28;20476;-45
2021/09/08 03:07:26;;;;;;;23.17;8.30;;;;;;;;;;5072873;28;20029;-43
2021/09/08 03:09:53;;;;;;;23.88;7.78;;;;;;;;;;5072710;28;20017;-45
2021/09/08 03:12:21;;;;;;;30.27;7.68;;;;;;;;;;5072903;28;20059;-44
2021/09/08 03:14:48;;;;;;;23.20;7.50;;;;;;;;;;5072595;28;20046;-44
2021/09/08 03:17:15;;;;;;;22.15;7.03;;;;;;;;;;5072448;28;20070;-43
2021/09/08 03:19:42;;;;;;;14.40;6.45;;;;;;;;;;5072401;28;20392;-45
2021/09/08 03:22:09;;;;;;;19.55;6.72;;;;;;;;;;5072749;28;20044;-44
2021/09/08 03:24:36;;;;;;;18.23;6.65;;;;;;;;;;5072563;28;20077;-49
2021/09/08 03:27:04;;;;;;;19.80;7.28;;;;;;;;;;5072588;28;20013;-45
2021/09/08 03:29:31;;;;;;;24.17;6.78;;;;;;;;;;5072629;28;20031;-45
2021/09/08 03:31:58;;;;;;;18.55;6.95;;;;;;;;;;5072181;28;20025;-43
2021/09/08 03:34:25;;;;;;;18.30;6.13;;;;;;;;;;5072300;28;20025;-45
2021/09/08 03:36:52;;;;;;;14.93;6.10;;;;;;;;;;5072209;28;20107;-45
2021/09/08 03:39:19;;;;;;;17.00;6.07;;;;;;;;;;5072071;28;20079;-46
2021/09/08 03:41:46;;;;;;;16.55;5.47;;;;;;;;;;5071928;28;20354;-43
2021/09/08 03:44:13;;;;;;;14.73;6.10;;;;;;;;;;5072234;28;20023;-44
2021/09/08 03:46:40;;;;;;;17.98;5.65;;;;;;;;;;5071909;28;20103;-43
2021/09/08 03:49:07;;;;;;;16.48;5.50;;;;;;;;;;5071064;28;20056;-42
2021/09/08 03:51:34;;;;;;;13.82;5.25;;;;;;;;;;5079302;28;20029;-43
2021/09/08 03:54:01;;;;;;;12.32;5.10;;;;;;;;;;5071787;28;20028;-44
2021/09/08 03:56:28;;;;;;;13.05;5.15;;;;;;;;;;5071906;28;20029;-43
2021/09/08 03:58:55;;;;;;;13.02;4.88;;;;;;;;;;5072036;28;20066;-44
2021/09/08 04:01:22;;;;;;;14.13;5.10;;;;;;;;;;5071575;28;20021;-42
2021/09/08 04:03:49;;;;;;;10.90;4.15;;;;;;;;;;5071797;28;20067;-43
2021/09/08 04:06:18;;;;;;;9.27;4.45;;;;;;;;;;5071826;28;20016;-46
2021/09/08 04:08:45;;;;;;;10.27;3.85;;;;;;;;;;5071487;28;20112;-43
2021/09/08 04:11:12;;;;;;;15.02;4.10;;;;;;;;;;5071462;28;20056;-45
2021/09/08 04:13:39;;;;;;;12.75;4.45;;;;;;;;;;5071842;28;20012;-44
2021/09/08 04:16:06;;;;;;;11.48;3.78;;;;;;;;;;5071248;28;20421;-43
2021/09/08 04:18:33;;;;;;;9.57;3.85;;;;;;;;;;5085503;28;20028;-45
2021/09/08 04:21:01;;;;;;;8.88;3.63;;;;;;;;;;5071771;28;20020;-45
2021/09/08 04:23:27;;;;;;;7.68;3.50;;;;;;;;;;5071354;28;20050;-45
2021/09/08 04:25:55;;;;;;;9.73;3.30;;;;;;;;;;5071578;28;20537;-45
2021/09/08 04:28:22;;;;;;;9.52;3.90;;;;;;;;;;5071298;28;20097;-45
2021/09/08 04:30:49;;;;;;;7.28;3.35;;;;;;;;;;5071478;28;20020;-44
2021/09/08 04:33:15;;;;;;;9.73;3.28;;;;;;;;;;5071406;28;20013;-44
2021/09/08 04:35:42;;;;;;;8.80;3.28;;;;;;;;;;5071568;28;20111;-45
2021/09/08 04:38:09;;;;;;;9.10;3.45;;;;;;;;;;5071054;28;20442;-44
2021/09/08 04:40:36;;;;;;;7.95;3.35;;;;;;;;;;5071162;28;20048;-43
2021/09/08 04:43:03;;;;;;;11.10;3.40;;;;;;;;;;5071564;28;20073;-45
2021/09/08 04:45:30;;;;;;;6.55;2.80;;;;;;;;;;5070876;28;20058;-43
2021/09/08 04:47:57;;;;;;;8.85;3.10;;;;;;;;;;5071376;28;20020;-44
2021/09/08 04:50:25;;;;;;;7.13;2.83;;;;;;;;;;5071544;28;20024;-45
2021/09/08 04:52:51;;;;;;;8.15;2.80;;;;;;;;;;5071148;28;20017;-44
2021/09/08 04:55:18;;;;;;;8.23;3.25;;;;;;;;;;5071233;28;20070;-43
2021/09/08 04:57:45;;;;;;;6.80;2.72;;;;;;;;;;5071031;28;20103;-42
2021/09/08 05:00:13;;;;;;;7.65;3.03;;;;;;;;;;5071292;28;20020;-44
2021/09/08 05:02:40;;;;;;;6.05;2.78;;;;;;;;;;5075198;28;20020;-44
2021/09/08 05:05:07;;;;;;;8.07;3.13;;;;;;;;;;5075386;28;20025;-43
2021/09/08 05:07:34;;;;;;;7.72;2.55;;;;;;;;;;5071032;28;20361;-45
2021/09/08 05:10:01;;;;;;;6.45;2.67;;;;;;;;;;5089216;28;20528;-45
2021/09/08 05:12:28;;;;;;;4.15;2.05;;;;;;;;;;5075178;28;20032;-45
2021/09/08 05:14:55;;;;;;;6.15;2.60;;;;;;;;;;5074983;28;20484;-42
2021/09/08 05:17:22;;;;;;;8.07;2.97;;;;;;;;;;5074949;28;20480;-45
2021/09/08 05:19:49;;;;;;;6.45;2.50;;;;;;;;;;5074828;28;20029;-45
2021/09/08 05:22:16;;;;;;;5.70;2.20;;;;;;;;;;5075040;28;20024;-47
2021/09/08 05:24:43;;;;;;;5.85;2.55;;;;;;;;;;5074517;28;20017;-47
2021/09/08 05:27:10;;;;;;;6.75;2.60;;;;;;;;;;5074906;28;20020;-45
2021/09/08 05:29:37;;;;;;;7.85;2.45;;;;;;;;;;5074774;28;20526;-46
2021/09/08 05:32:05;;;;;;;5.60;2.38;;;;;;;;;;5074544;28;20013;-46
2021/09/08 05:34:31;;;;;;;4.63;2.08;;;;;;;;;;5056969;28;20016;-48
2021/09/08 05:36:59;;;;;;;5.13;2.25;;;;;;;;;;5074593;28;20013;-47
2021/09/08 05:39:26;;;;;;;4.40;2.15;;;;;;;;;;5074339;28;20048;-45
2021/09/08 05:41:52;;;;;;;4.78;2.33;;;;;;;;;;5074297;28;20078;-46
2021/09/08 05:44:19;;;;;;;7.95;2.05;;;;;;;;;;5074286;28;20023;-44
2021/09/08 05:46:47;;;;;;;4.70;1.85;;;;;;;;;;5074212;28;20021;-44
2021/09/08 05:49:14;;;;;;;4.43;2.33;;;;;;;;;;5074193;28;20023;-46
2021/09/08 05:51:41;;;;;;;5.03;2.08;;;;;;;;;;5074519;28;20516;-45
2021/09/08 05:54:08;;;;;;;5.20;1.90;;;;;;;;;;5074166;28;20055;-45
2021/09/08 05:56:35;;;;;;;4.05;1.77;;;;;;;;;;5074263;28;20074;-44
2021/09/08 05:59:03;;;;;;;4.40;1.90;;;;;;;;;;5074049;28;20036;-45
2021/09/08 06:01:30;;;;;;;5.15;1.90;;;;;;;;;;5074086;28;20013;-43
2021/09/08 06:03:58;;;;;;;7.07;1.92;;;;;;;;;;5073981;28;20009;-44
2021/09/08 06:06:25;;;;;;;6.28;1.85;;;;;;;;;;5073988;28;20063;-46
2021/09/08 06:08:52;;;;;;;5.18;2.05;;;;;;;;;;5074011;28;20537;-49
2021/09/08 06:11:19;;;;;;;2.75;1.25;;;;;;;;;;5073861;28;20031;-45
2021/09/08 06:13:46;;;;;;;4.22;1.60;;;;;;;;;;5055370;28;20029;-46
2021/09/08 06:16:13;;;;;;;2.85;1.50;;;;;;;;;;5073716;28;20008;-44
2021/09/08 06:18:40;;;;;;;4.43;1.75;;;;;;;;;;5073823;28;20089;-46
2021/09/08 06:21:07;;;;;;;4.45;1.60;;;;;;;;;;5073969;28;20024;-46
2021/09/08 06:23:34;;;;;;;4.93;1.83;;;;;;;;;;5073570;28;20029;-46
2021/09/08 06:26:01;;;;;;;3.17;1.52;;;;;;;;;;5073642;28;20066;-44
2021/09/08 06:28:30;;;;;;;3.65;1.70;;;;;;;;;;5073511;28;20081;-42
2021/09/08 06:30:57;;;;;;;3.38;1.58;;;;;;;;;;5073622;28;20490;-45
2021/09/08 06:33:24;;;;;;;3.92;1.52;;;;;;;;;;5095372;28;20051;-46
2021/09/08 06:35:52;;;;;;;5.32;2.08;;;;;;;;;;5107817;28;20053;-44
2021/09/08 06:38:19;;;;;;;3.92;1.70;;;;;;;;;;5103911;28;20048;-44
2021/09/08 06:40:46;;;;;;;3.63;1.42;;;;;;;;;;5095129;28;20020;-46
2021/09/08 06:43:13;;;;;;;2.53;1.30;;;;;;;;;;5106009;28;20468;-45
2021/09/08 06:45:40;;;;;;;5.03;1.80;;;;;;;;;;5093593;28;20024;-44
2021/09/08 06:48:07;;;;;;;3.47;1.30;;;;;;;;;;5093669;28;20032;-43
2021/09/08 06:50:34;;;;;;;2.15;1.10;;;;;;;;;;5106092;28;20379;-47
2021/09/08 06:53:01;;;;;;;2.90;1.25;;;;;;;;;;5094968;28;20426;-45
2021/09/08 06:55:28;;;;;;;2.95;1.20;;;;;;;;;;5093600;28;20047;-44
2021/09/08 06:57:55;;;;;;;2.85;1.40;;;;;;;;;;5093249;28;20078;-46
2021/09/08 07:00:22;;;;;;;3.90;1.55;;;;;;;;;;5093617;28;20066;-45
2021/09/08 07:02:49;;;;;;;3.30;1.40;;;;;;;;;;5093067;28;20032;-46
2021/09/08 07:05:17;;;;;;;2.05;1.33;;;;;;;;;;5093434;28;20080;-45
2021/09/08 07:07:45;;;;;;;2.95;1.38;;;;;;;;;;5106133;28;20028;-48
2021/09/08 07:10:12;;;;;;;3.22;1.38;;;;;;;;;;5093765;28;20055;-43
2021/09/08 07:12:39;;;;;;;2.05;1.10;;;;;;;;;;5074593;28;20020;-44
2021/09/08 07:15:06;;;;;;;2.67;1.15;;;;;;;;;;5092854;28;20017;-44
2021/09/08 07:17:33;;;;;;;2.75;1.20;;;;;;;;;;5092963;28;20396;-44
2021/09/08 07:20:00;;;;;;;3.03;1.30;;;;;;;;;;5092634;28;20039;-44
2021/09/08 07:22:27;;;;;;;1.40;0.80;;;;;;;;;;5093086;28;20345;-48
2021/09/08 07:24:54;;;;;;;2.03;0.90;;;;;;;;;;5092485;28;20062;-44
2021/09/08 07:27:21;;;;;;;2.90;1.13;;;;;;;;;;5092499;28;20024;-45
2021/09/08 07:29:48;;;;;;;1.63;1.00;;;;;;;;;;5092779;28;20020;-43
2021/09/08 07:32:15;;;;;;;1.90;1.00;;;;;;;;;;5074277;28;20043;-45
2021/09/08 07:34:42;;;;;;;2.30;0.98;;;;;;;;;;5092487;28;20027;-45
2021/09/08 07:37:09;;;;;;;1.73;1.02;;;;;;;;;;5092492;28;20024;-45
2021/09/08 07:39:37;;;;;;;1.23;0.70;;;;;;;;;;5092291;28;20097;-44
2021/09/08 07:42:04;;;;;;;1.88;1.05;;;;;;;;;;5106332;28;20020;-49
2021/09/08 07:44:31;;;;;;;2.53;0.98;;;;;;;;;;5092499;28;20024;-44
2021/09/08 07:46:58;;;;;;;1.52;0.85;;;;;;;;;;5092358;28;20020;-45
2021/09/08 07:49:25;;;;;;;2.47;1.02;;;;;;;;;;5092211;28;20457;-43
2021/09/08 07:51:52;;;;;;;2.60;1.10;;;;;;;;;;5092600;28;20368;-44
2021/09/08 07:54:19;;;;;;;2.05;0.85;;;;;;;;;;5092007;28;20028;-44
2021/09/08 07:56:46;;;;;;;1.58;0.88;;;;;;;;;;5092099;28;20012;-49
2021/09/08 07:59:13;;;;;;;1.23;0.80;;;;;;;;;;5091746;28;20028;-46
2021/09/08 08:01:40;;;;;;;2.03;0.70;;;;;;;;;;5092210;28;20024;-45
2021/09/08 08:04:09;;;;;;;3.00;0.75;;;;;;;;;;5073673;28;20395;-44
2021/09/08 08:06:37;;;;;;;2.42;1.10;;;;;;;;;;5091991;28;20553;-45
2021/09/08 08:09:04;;;;;;;1.80;0.93;;;;;;;;;;5092064;28;20020;-47
2021/09/08 08:11:31;;;;;;;2.72;0.80;;;;;;;;;;5091603;28;20487;-44
2021/09/08 08:13:58;;;;;;;3.65;0.80;;;;;;;;;;5092053;28;20024;-45
2021/09/08 08:16:25;;;;;;;1.48;0.73;;;;;;;;;;5091890;28;20031;-46
2021/09/08 08:18:52;;;;;;;1.92;0.65;;;;;;;;;;5091770;28;20365;-49
2021/09/08 08:21:19;;;;;;;1.00;0.60;;;;;;;;;;5091730;28;20047;-46
2021/09/08 08:23:47;;;;;;;4.30;0.90;;;;;;;;;;5091692;28;20477;-47
2021/09/08 08:26:17;;;;;;;1.33;0.73;;;;;;;;;;5091587;28;20103;-44
2021/09/08 08:28:45;;;;;;;2.17;0.80;;;;;;;;;;5078159;28;20023;-45
2021/09/08 08:31:12;;;;;;;2.35;0.98;;;;;;;;;;5092120;28;20056;-46
2021/09/08 08:33:39;;;;;;;3.47;0.70;;;;;;;;;;5091549;28;20097;-48
2021/09/08 08:36:06;;;;;;;1.05;0.50;;;;;;;;;;5091164;28;20020;-45
2021/09/08 08:38:33;;;;;;;1.75;0.65;;;;;;;;;;5091204;28;20093;-46
2021/09/08 08:41:00;;;;;;;1.85;0.85;;;;;;;;;;5097011;28;20628;-45
2021/09/08 08:43:27;;;;;;;1.25;0.60;;;;;;;;;;5099752;28;20020;-45
2021/09/08 08:45:54;;;;;;;0.82;0.55;;;;;;;;;;5091335;28;20076;-44
2021/09/08 08:48:21;;;;;;;1.75;0.70;;;;;;;;;;5091667;28;20031;-44
2021/09/08 08:50:49;;;;;;;0.95;0.70;;;;;;;;;;5091299;28;20020;-44
2021/09/08 08:53:15;;;;;;;1.45;0.60;;;;;;;;;;5091371;28;20043;-46
2021/09/08 08:55:42;;;;;;;0.73;0.40;;;;;;;;;;5091116;28;20035;-44
2021/09/08 08:58:09;;;;;;;2.97;0.80;;;;;;;;;;5091391;28;20035;-44
2021/09/08 09:00:37;;;;;;;1.25;0.60;;;;;;;;;;5091455;28;20028;-44
2021/09/08 09:03:05;;;;;;;1.13;0.57;;;;;;;;;;5091193;28;20021;-44
2021/09/08 09:05:34;;;;;;;1.00;0.60;;;;;;;;;;5091383;28;20356;-45
2021/09/08 09:08:02;;;;;;;1.70;0.80;;;;;;;;;;5091032;28;20012;-44
2021/09/08 09:10:29;;;;;;;1.65;0.60;;;;;;;;;;5091300;28;20024;-45
2021/09/08 09:12:56;;;;;;;2.08;0.75;;;;;;;;;;5091140;28;20020;-44
2021/09/08 09:15:24;;;;;;;1.02;0.60;;;;;;;;;;5091441;28;20540;-45
2021/09/08 09:17:51;;;;;;;0.80;0.40;;;;;;;;;;5090806;28;20031;-45
2021/09/08 09:20:23;;;;;;;1.80;0.60;;;;;;;;;;5091180;28;20069;-47
2021/09/08 09:22:54;;;;;;;1.23;0.47;;;;;;;;;;5090924;28;20088;-44
2021/09/08 09:25:23;;;;;;;1.95;0.52;;;;;;;;;;5091105;28;20393;-46
2021/09/08 09:27:51;;;;;;;1.20;0.50;;;;;;;;;;5091081;28;20421;-47
2021/09/08 09:30:22;;;;;;;1.33;0.75;;;;;;;;;;5090887;28;20024;-44
2021/09/08 09:32:51;;;;;;;4.03;0.60;;;;;;;;;;5091292;28;20352;-45
2021/09/08 09:35:24;;;;;;;3.15;0.70;;;;;;;;;;5090936;28;20021;-46
2021/09/08 09:37:53;;;;;;;1.65;0.50;;;;;;;;;;5090567;28;20116;-44
2021/09/08 09:40:24;;;;;;;1.38;0.60;;;;;;;;;;5095801;28;20031;-46
2021/09/08 09:42:51;;;;;;;1.10;0.60;;;;;;;;;;5106593;28;20031;-44
2021/09/08 09:45:18;;;;;;;1.23;0.47;;;;;;;;;;5104361;28;20039;-48
2021/09/08 09:47:46;;;;;;;1.15;0.50;;;;;;;;;;5098727;28;20032;-44
2021/09/08 09:50:17;;;;;;;1.08;0.50;;;;;;;;;;5111911;28;20028;-45
2021/09/08 09:52:49;;;;;;;1.05;0.60;;;;;;;;;;5111463;28;20089;-45
2021/09/08 09:55:16;;;;;;;1.13;0.57;;;;;;;;;;5107540;28;20230;-44
2021/09/08 09:57:43;;;;;;;1.48;0.70;;;;;;;;;;5108990;28;20452;-46
2021/09/08 10:00:11;;;;;;;1.20;0.60;;;;;;;;;;5104108;28;20394;-46
2021/09/08 10:02:39;;;;;;;0.52;0.43;;;;;;;;;;5092138;28;20022;-47
2021/09/08 10:05:06;;;;;;;1.67;0.80;;;;;;;;;;5092919;28;20487;-46
2021/09/08 10:07:35;;;;;;;0.70;0.45;;;;;;;;;;5093745;28;20028;-46
2021/09/08 10:10:13;;;;;;;1.85;0.52;;;;;;;;;;5094033;28;20024;-44
2021/09/08 10:12:49;;;;;;;1.70;0.52;;;;;;;;;;5075879;28;20059;-46
2021/09/08 10:15:17;;;;;;;1.38;0.68;;;;;;;;;;5093764;28;20353;-44
2021/09/08 10:17:45;;;;;;;0.70;0.40;;;;;;;;;;5094143;28;20020;-44
2021/09/08 10:20:16;;;;;;;0.82;0.43;;;;;;;;;;5093752;28;20028;-46
2021/09/08 10:22:48;;;;;;;1.33;0.45;;;;;;;;;;5093959;28;20035;-44
2021/09/08 10:25:16;;;;;;;1.05;0.50;;;;;;;;;;5089878;28;20476;-46
2021/09/08 10:27:43;;;;;;;0.65;0.45;;;;;;;;;;5094026;28;20082;-46
2021/09/08 10:30:11;;;;;;;2.53;0.47;;;;;;;;;;5093537;28;20013;-45
2021/09/08 10:32:40;;;;;;;1.45;0.50;;;;;;;;;;5075653;28;20491;-46
2021/09/08 10:35:12;;;;;;;8.15;0.88;;;;;;;;;;5093727;28;20471;-46
2021/09/08 10:37:39;;;;;;;1.10;0.30;;;;;;;;;;5093534;28;20043;-47
2021/09/08 10:40:09;;;;;;;2.95;0.40;;;;;;;;;;5093530;28;20043;-47
2021/09/08 10:42:52;;;;;;;1.98;0.50;;;;;;;;;;5093213;28;20017;-46
2021/09/08 10:45:20;;;;;;;0.68;0.47;;;;;;;;;;5093593;28;20031;-45
2021/09/08 10:47:46;;;;;;;1.52;0.40;;;;;;;;;;5093445;28;20020;-46
2021/09/08 10:50:13;;;;;;;1.15;0.50;;;;;;;;;;5093533;28;20535;-45
2021/09/08 10:52:42;;;;;;;1.55;0.63;;;;;;;;;;5093274;28;20068;-46
2021/09/08 10:55:13;;;;;;;0.80;0.40;;;;;;;;;;5093309;28;20020;-49
2021/09/08 10:57:40;;;;;;;1.08;0.60;;;;;;;;;;5093183;28;20028;-48
2021/09/08 11:00:08;;;;;;;0.60;0.40;;;;;;;;;;5092828;28;20031;-46
2021/09/08 11:02:44;;;;;;;0.68;0.30;;;;;;;;;;5093228;28;20024;-46
2021/09/08 11:05:11;;;;;;;1.63;0.50;;;;;;;;;;5093212;28;20403;-43
2021/09/08 11:07:39;;;;;;;1.15;0.40;;;;;;;;;;5092780;28;20519;-47
2021/09/08 11:10:06;;;;;;;1.88;0.40;;;;;;;;;;5093021;28;20089;-44
2021/09/08 11:12:59;;;;;;;1.40;0.50;;;;;;;;;;5074969;28;20143;-45
2021/09/08 11:15:31;;;;;;;1.90;0.50;;;;;;;;;;5079632;28;20031;-44
2021/09/08 11:17:58;;;;;;;1.07;0.30;;;;;;;;;;5104887;28;20114;-44
2021/09/08 11:20:25;;;;;;;1.45;0.50;;;;;;;;;;5109910;28;20300;-43
2021/09/08 11:23:18;;;;;;;3.03;0.50;;;;;;;;;;5108766;28;20371;-44
2021/09/08 11:25:46;;;;;;;0.85;0.47;;;;;;;;;;5081596;28;20042;-44
2021/09/08 11:28:14;;;;;;;2.58;0.70;;;;;;;;;;5085967;28;20016;-44
2021/09/08 11:30:42;;;;;;;1.27;0.60;;;;;;;;;;5093508;28;20027;-45
2021/09/08 11:33:10;;;;;;;12.07;0.70;;;;;;;;;;5096879;28;20026;-43
2021/09/08 11:35:43;;;;;;;4.40;0.60;;;;;;;;;;5091853;28;20025;-43
2021/09/08 11:38:12;;;;;;;3.17;0.60;;;;;;;;;;5073770;28;20085;-46
2021/09/08 11:40:49;;;;;;;1.27;0.38;;;;;;;;;;5091565;28;20467;-47
2021/09/08 11:43:30;;;;;;;1.13;0.40;;;;;;;;;;5091820;28;20100;-45
2021/09/08 11:45:57;;;;;;;1.35;0.45;;;;;;;;;;5092174;28;20506;-49
2021/09/08 11:48:31;;;;;;;2.42;0.40;;;;;;;;;;5088971;28;20027;-49
2021/09/08 11:51:03;;;;;;;0.68;0.40;;;;;;;;;;5071653;28;20032;-47
2021/09/08 11:53:30;;;;;;;2.20;0.68;;;;;;;;;;5069528;28;20016;-47
2021/09/08 11:56:16;;;;;;;2.40;0.40;;;;;;;;;;5109069;28;20425;-45
2021/09/08 11:58:44;;;;;;;6.05;0.70;;;;;;;;;;5090433;28;20024;-44
2021/09/08 12:01:12;;;;;;;1.65;0.63;;;;;;;;;;5096537;28;20073;-44
2021/09/08 12:03:43;;;;;;;6.65;0.50;;;;;;;;;;5101282;28;20387;-47
2021/09/08 12:06:15;;;;;;;3.38;0.50;;;;;;;;;;5071196;28;20083;-43
2021/09/08 12:08:49;;;;;;;3.20;0.40;;;;;;;;;;5077971;28;20367;-46
2021/09/08 12:11:35;;;;;;;5.07;0.60;;;;;;;;;;5092932;28;20016;-44
2021/09/08 12:14:15;;;;;;;2.28;0.52;;;;;;;;;;5105856;28;20034;-44
2021/09/08 12:16:42;;;;;;;1.15;0.40;;;;;;;;;;5107137;28;20072;-45
2021/09/08 12:19:13;;;;;;;1.55;0.50;;;;;;;;;;5102321;28;20054;-44
2021/09/08 12:21:40;;;;;;;0.90;0.40;;;;;;;;;;5088347;28;20063;-44
2021/09/08 12:24:22;;;;;;;2.90;0.68;;;;;;;;;;5077344;28;20475;-42
2021/09/08 12:26:49;;;;;;;1.38;0.40;;;;;;;;;;5074925;28;20024;-44
2021/09/08 12:29:16;;;;;;;2.35;0.50;;;;;;;;;;5077849;28;20036;-44
2021/09/08 12:31:51;;;;;;;3.45;0.57;;;;;;;;;;5074734;28;20028;-44
2021/09/08 12:34:18;;;;;;;1.65;0.30;;;;;;;;;;5083820;28;20395;-47
2021/09/08 12:36:45;;;;;;;3.45;0.60;;;;;;;;;;5073209;28;20354;-43
2021/09/08 12:39:14;;;;;;;2.15;0.55;;;;;;;;;;5097211;28;20043;-43
2021/09/08 12:41:55;;;;;;;2.50;0.77;;;;;;;;;;5072644;28;20052;-43
2021/09/08 12:44:26;;;;;;;1.48;0.47;;;;;;;;;;5090040;28;20106;-43
2021/09/08 12:46:53;;;;;;;1.40;0.40;;;;;;;;;;5099367;28;20365;-43
2021/09/08 12:49:22;;;;;;;2.63;0.30;;;;;;;;;;5101530;28;20035;-42
2021/09/08 12:51:50;;;;;;;1.38;0.40;;;;;;;;;;5089500;28;20103;-44
2021/09/08 12:54:18;;;;;;;4.18;0.70;;;;;;;;;;5090093;28;20020;-49
2021/09/08 12:56:46;;;;;;;3.13;0.60;;;;;;;;;;5098065;28;20016;-46
2021/09/08 12:59:21;;;;;;;2.30;0.40;;;;;;;;;;5104794;28;20118;-43
2021/09/08 13:01:49;;;;;;;4.13;0.40;;;;;;;;;;5098987;28;20116;-44
2021/09/08 13:04:16;;;;;;;2.30;0.40;;;;;;;;;;5095319;28;20048;-47
2021/09/08 13:06:43;;;;;;;1.40;0.50;;;;;;;;;;5104292;28;20016;-44
2021/09/08 13:09:10;;;;;;;1.30;0.40;;;;;;;;;;5098091;28;20023;-41
2021/09/08 13:11:37;;;;;;;2.47;0.30;;;;;;;;;;5100355;28;20020;-46
2021/09/08 13:14:05;;;;;;;0.95;0.40;;;;;;;;;;5105134;28;20091;-46
2021/09/08 13:16:36;;;;;;;2.72;0.43;;;;;;;;;;5099863;28;20020;-43
2021/09/08 13:19:04;;;;;;;1.17;0.40;;;;;;;;;;5094465;28;20074;-43
2021/09/08 13:21:32;;;;;;;2.90;0.43;;;;;;;;;;5096215;28;20540;-46
2021/09/08 13:24:00;;;;;;;4.97;0.60;;;;;;;;;;5104930;28;20027;-43
2021/09/08 13:26:28;;;;;;;2.72;0.57;;;;;;;;;;5092946;28;20399;-44
2021/09/08 13:28:55;;;;;;;3.40;0.40;;;;;;;;;;5093924;28;20020;-43
2021/09/08 13:31:25;;;;;;;4.13;0.50;;;;;;;;;;5092512;28;20113;-43
2021/09/08 13:33:52;;;;;;;4.28;0.47;;;;;;;;;;5093053;28;20020;-44
2021/09/08 13:36:19;;;;;;;4.70;0.47;;;;;;;;;;5082283;28;20028;-41
2021/09/08 13:38:46;;;;;;;2.33;0.52;;;;;;;;;;5092517;28;20089;-43
2021/09/08 13:41:13;;;;;;;5.63;0.40;;;;;;;;;;5092438;28;20016;-42
2021/09/08 13:43:43;;;;;;;0.73;0.25;;;;;;;;;;5097983;28;20491;-44
2021/09/08 13:46:10;;;;;;;6.43;0.50;;;;;;;;;;5080271;28;20047;-43
2021/09/08 13:48:38;;;;;;;2.95;0.40;;;;;;;;;;5093035;28;20496;-46
2021/09/08 13:51:05;;;;;;;3.65;0.50;;;;;;;;;;5091771;28;20020;-44
2021/09/08 13:53:32;;;;;;;4.13;0.47;;;;;;;;;;5092456;28;20026;-43
2021/09/08 13:55:59;;;;;;;5.40;0.55;;;;;;;;;;5093336;28;20019;-43
2021/09/08 13:58:28;;;;;;;5.32;0.52;;;;;;;;;;5093092;28;20028;-43
2021/09/08 14:00:55;;;;;;;1.48;0.40;;;;;;;;;;5093419;28;20116;-43
2021/09/08 14:03:23;;;;;;;1.50;0.38;;;;;;;;;;5093799;28;20032;-45
2021/09/08 14:05:50;;;;;;;1.13;0.43;;;;;;;;;;5099213;28;20031;-43
2021/09/08 14:08:17;;;;;;;2.72;0.40;;;;;;;;;;5104183;28;20456;-43
2021/09/08 14:10:45;;;;;;;1.77;0.50;;;;;;;;;;5108425;28;20414;-43
2021/09/08 14:13:12;;;;;;;2.08;0.50;;;;;;;;;;5080506;28;20016;-43
2021/09/08 14:15:40;;;;;;;2.03;0.50;;;;;;;;;;5106061;28;20031;-43
2021/09/08 14:18:07;;;;;;;5.93;0.68;;;;;;;;;;5105708;28;20020;-44
2021/09/08 14:20:35;;;;;;;5.43;0.30;;;;;;;;;;5094085;28;20035;-42
2021/09/08 14:23:02;;;;;;;0.90;0.40;;;;;;;;;;5096465;28;20042;-45
2021/09/08 14:25:29;;;;;;;1.10;0.30;;;;;;;;;;5092325;28;20099;-43
2021/09/08 14:27:57;;;;;;;2.78;0.45;;;;;;;;;;5093126;28;20020;-45
2021/09/08 14:30:24;;;;;;;1.48;0.50;;;;;;;;;;5092385;28;20008;-43
2021/09/08 14:32:51;;;;;;;0.93;0.43;;;;;;;;;;5092740;28;20012;-40
2021/09/08 14:35:18;;;;;;;1.95;0.45;;;;;;;;;;5091342;28;20028;-42
2021/09/08 14:37:46;;;;;;;3.38;0.45;;;;;;;;;;5092541;28;20078;-42
2021/09/08 14:40:14;;;;;;;1.48;0.45;;;;;;;;;;5092193;28;20063;-41
2021/09/08 14:42:41;;;;;;;3.60;0.57;;;;;;;;;;5094130;28;20020;-42